KWDG/WDG METAR and TAF weather

Enter ICAO airport designator
Station Type Date Time Source
KWDG METAR 2023/02/04 03:15 UTC NOAA

KWDG 040315Z AUTO 19010KT 10SM CLR 03/M01 A3033 RMK AO2


Station Type Date Time Source
KWDG Decoded METAR 2023/02/04 03:15 UTC NOAA

Enid, Enid Woodring Regional Airport, OK, United States (KWDG) 36-22-45N 097-47-28W
Feb 03, 2023 - 10:15 PM EST / 2023.02.04 0315 UTC
Wind: from the S (190 degrees) at 12 MPH (10 KT):0
Visibility: 10 mile(s):0
Sky conditions: clear
Temperature: 37 F (3 C)
Dew Point: 30 F (-1 C)
Relative Humidity: 74%
Pressure (altimeter): 30.33 in. Hg (1027 hPa)
ob: KWDG 040315Z AUTO 19010KT 10SM CLR 03/M01 A3033 RMK AO2
cycle: 3

Station Type Date Time Source
KWDG TAF UTC NOAA

Error!

Example: see airport list